sensor_id;sensor_type;location;lat;lon;timestamp;temperature;humidity
32614;DHT22;19031;51.400;6.770;2023-06-14T00:01:53;19.20;98.10
32614;DHT22;19031;51.400;6.770;2023-06-14T00:04:18;19.20;98.60
32614;DHT22;19031;51.400;6.770;2023-06-14T00:06:46;19.20;97.90
32614;DHT22;19031;51.400;6.770;2023-06-14T00:09:12;19.20;98.10
32614;DHT22;19031;51.400;6.770;2023-06-14T00:11:43;19.20;98.00
32614;DHT22;19031;51.400;6.770;2023-06-14T00:14:09;19.20;98.10
32614;DHT22;19031;51.400;6.770;2023-06-14T00:16:35;19.20;98.50
32614;DHT22;19031;51.400;6.770;2023-06-14T00:19:01;19.10;98.60
32614;DHT22;19031;51.400;6.770;2023-06-14T00:21:30;19.10;98.80
32614;DHT22;19031;51.400;6.770;2023-06-14T00:23:57;19.10;99.00
32614;DHT22;19031;51.400;6.770;2023-06-14T00:26:23;19.00;99.30
32614;DHT22;19031;51.400;6.770;2023-06-14T00:28:49;19.00;99.20
32614;DHT22;19031;51.400;6.770;2023-06-14T00:31:14;19.00;99.40
32614;DHT22;19031;51.400;6.770;2023-06-14T00:33:40;19.00;99.30
32614;DHT22;19031;51.400;6.770;2023-06-14T00:36:06;18.90;99.90
32614;DHT22;19031;51.400;6.770;2023-06-14T00:38:31;18.90;99.90
32614;DHT22;19031;51.400;6.770;2023-06-14T00:40:57;18.80;99.90
32614;DHT22;19031;51.400;6.770;2023-06-14T00:43:22;18.80;99.90
32614;DHT22;19031;51.400;6.770;2023-06-14T00:45:48;18.80;99.90
32614;DHT22;19031;51.400;6.770;2023-06-14T00:48:15;18.60;99.90
32614;DHT22;19031;51.400;6.770;2023-06-14T00:50:41;18.70;99.90
32614;DHT22;19031;51.400;6.770;2023-06-14T00:53:07;18.60;99.90
32614;DHT22;19031;51.400;6.770;2023-06-14T00:55:32;18.60;99.90
32614;DHT22;19031;51.400;6.770;2023-06-14T00:57:58;18.60;99.90
32614;DHT22;19031;51.400;6.770;2023-06-14T01:00:24;18.60;99.90
32614;DHT22;19031;51.400;6.770;2023-06-14T01:02:49;18.60;99.90
32614;DHT22;19031;51.400;6.770;2023-06-14T01:05:16;18.50;99.90
32614;DHT22;19031;51.400;6.770;2023-06-14T01:13:28;18.30;99.90
32614;DHT22;19031;51.400;6.770;2023-06-14T01:15:55;18.20;99.90
32614;DHT22;19031;51.400;6.770;2023-06-14T01:18:22;18.10;99.90
32614;DHT22;19031;51.400;6.770;2023-06-14T01:20:49;18.10;99.90
32614;DHT22;19031;51.400;6.770;2023-06-14T01:23:19;18.10;99.90
32614;DHT22;19031;51.400;6.770;2023-06-14T01:25:46;18.10;99.90
32614;DHT22;19031;51.400;6.770;2023-06-14T01:28:12;18.00;99.90
32614;DHT22;19031;51.400;6.770;2023-06-14T01:30:44;18.00;99.90
32614;DHT22;19031;51.400;6.770;2023-06-14T01:33:22;17.80;99.90
32614;DHT22;19031;51.400;6.770;2023-06-14T01:35:51;17.80;99.90
32614;DHT22;19031;51.400;6.770;2023-06-14T01:38:22;17.80;99.90
32614;DHT22;19031;51.400;6.770;2023-06-14T01:40:49;17.80;99.90
32614;DHT22;19031;51.400;6.770;2023-06-14T01:43:16;17.70;99.90
32614;DHT22;19031;51.400;6.770;2023-06-14T01:45:45;17.60;99.90
32614;DHT22;19031;51.400;6.770;2023-06-14T01:48:12;17.60;99.90
32614;DHT22;19031;51.400;6.770;2023-06-14T01:50:39;17.70;99.90
32614;DHT22;19031;51.400;6.770;2023-06-14T01:53:08;17.50;99.90
32614;DHT22;19031;51.400;6.770;2023-06-14T01:55:34;17.50;99.90
32614;DHT22;19031;51.400;6.770;2023-06-14T01:58:03;17.40;99.90
32614;DHT22;19031;51.400;6.770;2023-06-14T02:00:29;17.40;99.90
32614;DHT22;19031;51.400;6.770;2023-06-14T02:02:55;17.30;99.90
32614;DHT22;19031;51.400;6.770;2023-06-14T02:05:21;17.30;99.90
32614;DHT22;19031;51.400;6.770;2023-06-14T02:07:47;17.20;99.90
32614;DHT22;19031;51.400;6.770;2023-06-14T02:10:13;17.20;99.90
32614;DHT22;19031;51.400;6.770;2023-06-14T02:12:40;17.20;99.90
32614;DHT22;19031;51.400;6.770;2023-06-14T02:15:06;17.20;99.90
32614;DHT22;19031;51.400;6.770;2023-06-14T02:17:32;17.20;99.90
32614;DHT22;19031;51.400;6.770;2023-06-14T02:19:58;17.10;99.90
32614;DHT22;19031;51.400;6.770;2023-06-14T02:22:23;17.10;99.90
32614;DHT22;19031;51.400;6.770;2023-06-14T02:24:49;17.00;99.90
32614;DHT22;19031;51.400;6.770;2023-06-14T02:27:15;17.00;99.90
32614;DHT22;19031;51.400;6.770;2023-06-14T02:29:41;17.00;99.90
32614;DHT22;19031;51.400;6.770;2023-06-14T02:32:07;16.90;99.90
32614;DHT22;19031;51.400;6.770;2023-06-14T02:34:35;16.80;99.90
32614;DHT22;19031;51.400;6.770;2023-06-14T02:37:01;16.90;99.90
32614;DHT22;19031;51.400;6.770;2023-06-14T02:39:28;16.90;99.90
32614;DHT22;19031;51.400;6.770;2023-06-14T02:41:54;16.90;99.90
32614;DHT22;19031;51.400;6.770;2023-06-14T02:44:24;16.90;99.90
32614;DHT22;19031;51.400;6.770;2023-06-14T02:46:50;16.90;99.90
32614;DHT22;19031;51.400;6.770;2023-06-14T02:49:16;16.80;99.90
32614;DHT22;19031;51.400;6.770;2023-06-14T02:51:42;16.80;99.90
32614;DHT22;19031;51.400;6.770;2023-06-14T02:54:07;16.70;99.90
32614;DHT22;19031;51.400;6.770;2023-06-14T02:56:33;16.60;99.90
32614;DHT22;19031;51.400;6.770;2023-06-14T02:58:58;16.70;99.90
32614;DHT22;19031;51.400;6.770;2023-06-14T03:01:26;16.60;99.90
32614;DHT22;19031;51.400;6.770;2023-06-14T03:04:03;16.60;99.90
32614;DHT22;19031;51.400;6.770;2023-06-14T03:06:29;16.60;99.90
32614;DHT22;19031;51.400;6.770;2023-06-14T03:08:59;16.40;99.90
32614;DHT22;19031;51.400;6.770;2023-06-14T03:11:26;16.50;99.90
32614;DHT22;19031;51.400;6.770;2023-06-14T03:13:52;16.50;99.90
32614;DHT22;19031;51.400;6.770;2023-06-14T03:16:18;16.40;99.90
32614;DHT22;19031;51.400;6.770;2023-06-14T03:18:50;16.40;99.90
32614;DHT22;19031;51.400;6.770;2023-06-14T03:21:15;16.40;99.90
32614;DHT22;19031;51.400;6.770;2023-06-14T03:23:42;16.40;99.90
32614;DHT22;19031;51.400;6.770;2023-06-14T03:26:07;16.30;99.90
32614;DHT22;19031;51.400;6.770;2023-06-14T03:28:33;16.30;99.90
32614;DHT22;19031;51.400;6.770;2023-06-14T03:30:59;16.30;99.90
32614;DHT22;19031;51.400;6.770;2023-06-14T03:33:25;16.30;99.90
32614;DHT22;19031;51.400;6.770;2023-06-14T03:35:51;16.40;99.90
32614;DHT22;19031;51.400;6.770;2023-06-14T03:38:17;16.30;99.90
32614;DHT22;19031;51.400;6.770;2023-06-14T03:40:42;16.40;99.90
32614;DHT22;19031;51.400;6.770;2023-06-14T03:43:08;16.40;99.90
32614;DHT22;19031;51.400;6.770;2023-06-14T03:45:34;16.40;99.90
32614;DHT22;19031;51.400;6.770;2023-06-14T03:47:59;16.40;99.90
32614;DHT22;19031;51.400;6.770;2023-06-14T03:50:26;16.40;99.90
32614;DHT22;19031;51.400;6.770;2023-06-14T03:52:52;16.50;99.90
32614;DHT22;19031;51.400;6.770;2023-06-14T03:55:18;16.30;99.90
32614;DHT22;19031;51.400;6.770;2023-06-14T03:57:44;16.40;99.90
32614;DHT22;19031;51.400;6.770;2023-06-14T04:00:10;16.40;99.90
32614;DHT22;19031;51.400;6.770;2023-06-14T04:02:37;16.40;99.90
32614;DHT22;19031;51.400;6.770;2023-06-14T04:05:03;16.50;99.90
32614;DHT22;19031;51.400;6.770;2023-06-14T04:07:28;16.50;99.90
32614;DHT22;19031;51.400;6.770;2023-06-14T04:09:55;16.50;99.90
32614;DHT22;19031;51.400;6.770;2023-06-14T04:12:21;16.60;99.90
32614;DHT22;19031;51.400;6.770;2023-06-14T04:14:46;16.60;99.90
32614;DHT22;19031;51.400;6.770;2023-06-14T04:17:12;16.60;99.90
32614;DHT22;19031;51.400;6.770;2023-06-14T04:19:37;16.70;99.90
32614;DHT22;19031;51.400;6.770;2023-06-14T04:22:03;16.70;99.90
32614;DHT22;19031;51.400;6.770;2023-06-14T04:24:29;16.70;99.90
32614;DHT22;19031;51.400;6.770;2023-06-14T04:26:58;16.80;99.90
32614;DHT22;19031;51.400;6.770;2023-06-14T04:29:25;16.90;99.90
32614;DHT22;19031;51.400;6.770;2023-06-14T04:31:53;17.00;99.90
32614;DHT22;19031;51.400;6.770;2023-06-14T04:34:20;17.00;99.90
32614;DHT22;19031;51.400;6.770;2023-06-14T04:36:47;17.00;99.90
32614;DHT22;19031;51.400;6.770;2023-06-14T04:39:19;17.10;99.90
32614;DHT22;19031;51.400;6.770;2023-06-14T04:41:44;17.20;99.90
32614;DHT22;19031;51.400;6.770;2023-06-14T04:44:10;17.30;99.90
32614;DHT22;19031;51.400;6.770;2023-06-14T04:46:36;17.30;99.90
32614;DHT22;19031;51.400;6.770;2023-06-14T04:49:17;17.50;99.90
32614;DHT22;19031;51.400;6.770;2023-06-14T04:51:44;17.50;99.90
32614;DHT22;19031;51.400;6.770;2023-06-14T04:54:10;17.60;99.90
32614;DHT22;19031;51.400;6.770;2023-06-14T04:56:40;17.70;99.90
32614;DHT22;19031;51.400;6.770;2023-06-14T04:59:05;17.80;99.90
32614;DHT22;19031;51.400;6.770;2023-06-14T05:01:32;17.80;99.90
32614;DHT22;19031;51.400;6.770;2023-06-14T05:03:58;18.00;99.90
32614;DHT22;19031;51.400;6.770;2023-06-14T05:06:24;18.20;99.90
32614;DHT22;19031;51.400;6.770;2023-06-14T05:08:50;18.20;99.90
32614;DHT22;19031;51.400;6.770;2023-06-14T05:11:16;18.30;99.90
32614;DHT22;19031;51.400;6.770;2023-06-14T05:13:43;18.40;99.90
32614;DHT22;19031;51.400;6.770;2023-06-14T05:16:10;18.40;99.90
32614;DHT22;19031;51.400;6.770;2023-06-14T05:18:37;18.50;99.90
32614;DHT22;19031;51.400;6.770;2023-06-14T05:21:03;18.70;99.90
32614;DHT22;19031;51.400;6.770;2023-06-14T05:23:32;18.80;99.90
32614;DHT22;19031;51.400;6.770;2023-06-14T05:25:57;18.90;99.90
32614;DHT22;19031;51.400;6.770;2023-06-14T05:28:23;19.00;99.90
32614;DHT22;19031;51.400;6.770;2023-06-14T05:30:49;19.10;99.90
32614;DHT22;19031;51.400;6.770;2023-06-14T05:33:15;19.10;99.90
32614;DHT22;19031;51.400;6.770;2023-06-14T05:35:41;19.10;99.90
32614;DHT22;19031;51.400;6.770;2023-06-14T05:38:07;19.10;99.90
32614;DHT22;19031;51.400;6.770;2023-06-14T05:40:33;19.20;99.80
32614;DHT22;19031;51.400;6.770;2023-06-14T05:42:59;19.20;99.90
32614;DHT22;19031;51.400;6.770;2023-06-14T05:45:24;19.20;99.90
32614;DHT22;19031;51.400;6.770;2023-06-14T05:47:50;19.40;99.90
32614;DHT22;19031;51.400;6.770;2023-06-14T05:50:15;19.50;99.20
32614;DHT22;19031;51.400;6.770;2023-06-14T05:52:41;19.50;99.40
32614;DHT22;19031;51.400;6.770;2023-06-14T05:55:07;19.60;99.60
32614;DHT22;19031;51.400;6.770;2023-06-14T05:57:32;19.60;99.60
32614;DHT22;19031;51.400;6.770;2023-06-14T05:59:58;19.60;99.60
32614;DHT22;19031;51.400;6.770;2023-06-14T06:02:24;19.70;99.90
32614;DHT22;19031;51.400;6.770;2023-06-14T06:04:50;19.80;99.30
32614;DHT22;19031;51.400;6.770;2023-06-14T06:07:15;19.90;99.00
32614;DHT22;19031;51.400;6.770;2023-06-14T06:09:41;19.90;99.00
32614;DHT22;19031;51.400;6.770;2023-06-14T06:12:07;20.00;99.10
32614;DHT22;19031;51.400;6.770;2023-06-14T06:14:33;20.10;99.60
32614;DHT22;19031;51.400;6.770;2023-06-14T06:16:58;20.20;98.70
32614;DHT22;19031;51.400;6.770;2023-06-14T06:19:24;20.40;98.70
32614;DHT22;19031;51.400;6.770;2023-06-14T06:21:50;20.40;98.10
32614;DHT22;19031;51.400;6.770;2023-06-14T06:24:16;20.50;98.80
32614;DHT22;19031;51.400;6.770;2023-06-14T06:26:42;20.60;98.40
32614;DHT22;19031;51.400;6.770;2023-06-14T06:29:07;20.70;98.10
32614;DHT22;19031;51.400;6.770;2023-06-14T06:31:33;20.80;98.10
32614;DHT22;19031;51.400;6.770;2023-06-14T06:33:59;20.90;97.50
32614;DHT22;19031;51.400;6.770;2023-06-14T06:36:24;21.00;97.50
32614;DHT22;19031;51.400;6.770;2023-06-14T06:38:50;21.10;96.50
32614;DHT22;19031;51.400;6.770;2023-06-14T06:41:16;21.20;96.80
32614;DHT22;19031;51.400;6.770;2023-06-14T06:43:41;21.50;96.50
32614;DHT22;19031;51.400;6.770;2023-06-14T06:46:07;21.60;95.10
32614;DHT22;19031;51.400;6.770;2023-06-14T06:48:32;21.60;95.20
32614;DHT22;19031;51.400;6.770;2023-06-14T06:50:58;21.60;93.70
32614;DHT22;19031;51.400;6.770;2023-06-14T06:53:24;21.80;92.70
32614;DHT22;19031;51.400;6.770;2023-06-14T06:55:49;22.00;93.20
32614;DHT22;19031;51.400;6.770;2023-06-14T06:58:15;22.20;92.50
32614;DHT22;19031;51.400;6.770;2023-06-14T07:00:40;22.50;91.40
32614;DHT22;19031;51.400;6.770;2023-06-14T07:03:06;22.60;90.10
32614;DHT22;19031;51.400;6.770;2023-06-14T07:05:32;22.60;89.30
32614;DHT22;19031;51.400;6.770;2023-06-14T07:07:58;22.80;90.00
32614;DHT22;19031;51.400;6.770;2023-06-14T07:10:23;23.00;87.60
32614;DHT22;19031;51.400;6.770;2023-06-14T07:12:52;23.20;84.70
32614;DHT22;19031;51.400;6.770;2023-06-14T07:15:18;23.30;83.80
32614;DHT22;19031;51.400;6.770;2023-06-14T07:17:43;23.50;83.00
32614;DHT22;19031;51.400;6.770;2023-06-14T07:20:09;23.70;82.50
32614;DHT22;19031;51.400;6.770;2023-06-14T07:22:42;24.10;80.50
32614;DHT22;19031;51.400;6.770;2023-06-14T07:25:09;24.40;79.00
32614;DHT22;19031;51.400;6.770;2023-06-14T07:27:37;24.40;75.20
32614;DHT22;19031;51.400;6.770;2023-06-14T07:30:03;24.70;78.30
32614;DHT22;19031;51.400;6.770;2023-06-14T07:32:29;25.00;75.90
32614;DHT22;19031;51.400;6.770;2023-06-14T07:34:55;24.90;71.50
32614;DHT22;19031;51.400;6.770;2023-06-14T07:37:20;25.00;69.00
32614;DHT22;19031;51.400;6.770;2023-06-14T07:39:46;25.10;69.00
32614;DHT22;19031;51.400;6.770;2023-06-14T07:42:11;25.20;69.00
32614;DHT22;19031;51.400;6.770;2023-06-14T07:44:37;25.20;66.90
32614;DHT22;19031;51.400;6.770;2023-06-14T07:47:03;25.40;67.10
32614;DHT22;19031;51.400;6.770;2023-06-14T07:49:28;25.60;67.70
32614;DHT22;19031;51.400;6.770;2023-06-14T07:51:54;25.90;66.00
32614;DHT22;19031;51.400;6.770;2023-06-14T07:54:20;25.70;67.10
32614;DHT22;19031;51.400;6.770;2023-06-14T07:56:50;26.00;63.20
32614;DHT22;19031;51.400;6.770;2023-06-14T07:59:16;26.20;64.40
32614;DHT22;19031;51.400;6.770;2023-06-14T08:01:41;26.10;62.80
32614;DHT22;19031;51.400;6.770;2023-06-14T08:04:12;26.20;60.30
32614;DHT22;19031;51.400;6.770;2023-06-14T08:06:38;26.00;60.60
32614;DHT22;19031;51.400;6.770;2023-06-14T08:09:04;26.20;61.60
32614;DHT22;19031;51.400;6.770;2023-06-14T08:11:30;26.40;61.80
32614;DHT22;19031;51.400;6.770;2023-06-14T08:13:56;26.30;60.30
32614;DHT22;19031;51.400;6.770;2023-06-14T08:16:22;26.40;60.90
32614;DHT22;19031;51.400;6.770;2023-06-14T08:18:48;26.50;62.20
32614;DHT22;19031;51.400;6.770;2023-06-14T08:21:13;26.80;62.10
32614;DHT22;19031;51.400;6.770;2023-06-14T08:23:40;26.60;60.50
32614;DHT22;19031;51.400;6.770;2023-06-14T08:26:08;26.60;59.60
32614;DHT22;19031;51.400;6.770;2023-06-14T08:28:34;26.70;59.60
32614;DHT22;19031;51.400;6.770;2023-06-14T08:30:59;26.70;61.20
32614;DHT22;19031;51.400;6.770;2023-06-14T08:33:25;26.60;59.90
32614;DHT22;19031;51.400;6.770;2023-06-14T08:35:53;26.70;61.00
32614;DHT22;19031;51.400;6.770;2023-06-14T08:38:19;27.00;60.60
32614;DHT22;19031;51.400;6.770;2023-06-14T08:40:48;26.90;59.40
32614;DHT22;19031;51.400;6.770;2023-06-14T08:43:15;27.00;59.00
32614;DHT22;19031;51.400;6.770;2023-06-14T08:45:41;26.50;59.70
32614;DHT22;19031;51.400;6.770;2023-06-14T08:48:07;27.00;60.10
32614;DHT22;19031;51.400;6.770;2023-06-14T08:50:34;27.50;60.30
32614;DHT22;19031;51.400;6.770;2023-06-14T08:53:02;27.60;57.90
32614;DHT22;19031;51.400;6.770;2023-06-14T08:55:29;27.80;58.90
32614;DHT22;19031;51.400;6.770;2023-06-14T08:57:57;27.90;57.60
32614;DHT22;19031;51.400;6.770;2023-06-14T09:00:24;27.90;56.20
32614;DHT22;19031;51.400;6.770;2023-06-14T09:02:50;27.60;58.70
32614;DHT22;19031;51.400;6.770;2023-06-14T09:05:22;28.00;56.50
32614;DHT22;19031;51.400;6.770;2023-06-14T09:07:48;28.30;56.30
32614;DHT22;19031;51.400;6.770;2023-06-14T09:10:16;28.30;56.90
32614;DHT22;19031;51.400;6.770;2023-06-14T09:12:43;28.40;56.00
32614;DHT22;19031;51.400;6.770;2023-06-14T09:15:09;28.40;55.50
32614;DHT22;19031;51.400;6.770;2023-06-14T09:17:36;28.50;56.00
32614;DHT22;19031;51.400;6.770;2023-06-14T09:20:03;28.40;55.00
32614;DHT22;19031;51.400;6.770;2023-06-14T09:22:32;28.50;55.50
32614;DHT22;19031;51.400;6.770;2023-06-14T09:24:57;28.60;55.70
32614;DHT22;19031;51.400;6.770;2023-06-14T09:27:25;28.80;55.10
32614;DHT22;19031;51.400;6.770;2023-06-14T09:29:52;28.80;55.90
32614;DHT22;19031;51.400;6.770;2023-06-14T09:32:17;28.40;56.60
32614;DHT22;19031;51.400;6.770;2023-06-14T09:34:43;28.70;54.40
32614;DHT22;19031;51.400;6.770;2023-06-14T09:37:09;29.00;53.60
32614;DHT22;19031;51.400;6.770;2023-06-14T09:39:35;29.00;52.30
32614;DHT22;19031;51.400;6.770;2023-06-14T09:42:00;28.70;52.80
32614;DHT22;19031;51.400;6.770;2023-06-14T09:44:26;29.00;52.70
32614;DHT22;19031;51.400;6.770;2023-06-14T09:46:56;28.70;52.60
32614;DHT22;19031;51.400;6.770;2023-06-14T09:49:21;29.30;53.70
32614;DHT22;19031;51.400;6.770;2023-06-14T09:51:50;29.90;52.30
32614;DHT22;19031;51.400;6.770;2023-06-14T09:54:20;29.60;50.70
32614;DHT22;19031;51.400;6.770;2023-06-14T09:56:48;29.60;50.10
32614;DHT22;19031;51.400;6.770;2023-06-14T09:59:19;29.90;49.50
32614;DHT22;19031;51.400;6.770;2023-06-14T10:01:48;30.20;51.20
32614;DHT22;19031;51.400;6.770;2023-06-14T10:04:15;30.10;49.90
32614;DHT22;19031;51.400;6.770;2023-06-14T10:06:43;30.40;49.50
32614;DHT22;19031;51.400;6.770;2023-06-14T10:09:11;30.40;49.10
32614;DHT22;19031;51.400;6.770;2023-06-14T10:11:37;30.80;46.60
32614;DHT22;19031;51.400;6.770;2023-06-14T10:14:09;30.00;48.10
32614;DHT22;19031;51.400;6.770;2023-06-14T10:16:42;30.30;49.40
32614;DHT22;19031;51.400;6.770;2023-06-14T10:19:18;29.80;47.30
32614;DHT22;19031;51.400;6.770;2023-06-14T10:24:16;30.30;48.50
32614;DHT22;19031;51.400;6.770;2023-06-14T10:26:51;30.20;45.90
32614;DHT22;19031;51.400;6.770;2023-06-14T10:29:17;30.10;46.70
32614;DHT22;19031;51.400;6.770;2023-06-14T10:31:48;30.40;49.90
32614;DHT22;19031;51.400;6.770;2023-06-14T10:34:34;30.40;48.70
32614;DHT22;19031;51.400;6.770;2023-06-14T10:37:05;30.70;47.50
32614;DHT22;19031;51.400;6.770;2023-06-14T10:39:39;30.80;48.60
32614;DHT22;19031;51.400;6.770;2023-06-14T10:42:06;30.30;49.40
32614;DHT22;19031;51.400;6.770;2023-06-14T10:44:33;30.50;47.20
32614;DHT22;19031;51.400;6.770;2023-06-14T10:46:59;30.70;45.70
32614;DHT22;19031;51.400;6.770;2023-06-14T10:49:45;30.60;46.00
32614;DHT22;19031;51.400;6.770;2023-06-14T10:52:15;30.40;46.10
32614;DHT22;19031;51.400;6.770;2023-06-14T10:55:16;30.80;46.00
32614;DHT22;19031;51.400;6.770;2023-06-14T10:57:48;30.60;45.30
32614;DHT22;19031;51.400;6.770;2023-06-14T11:00:21;30.70;47.50
32614;DHT22;19031;51.400;6.770;2023-06-14T11:05:59;31.00;44.90
32614;DHT22;19031;51.400;6.770;2023-06-14T11:11:06;31.30;46.30
32614;DHT22;19031;51.400;6.770;2023-06-14T11:13:32;31.00;47.40
32614;DHT22;19031;51.400;6.770;2023-06-14T11:15:59;31.10;45.20
32614;DHT22;19031;51.400;6.770;2023-06-14T11:18:25;30.90;46.10
32614;DHT22;19031;51.400;6.770;2023-06-14T11:20:52;30.70;46.50
32614;DHT22;19031;51.400;6.770;2023-06-14T11:23:18;31.20;45.70
32614;DHT22;19031;51.400;6.770;2023-06-14T11:25:49;31.70;45.00
32614;DHT22;19031;51.400;6.770;2023-06-14T11:28:14;32.00;44.40
32614;DHT22;19031;51.400;6.770;2023-06-14T11:30:40;31.90;45.90
32614;DHT22;19031;51.400;6.770;2023-06-14T11:33:09;32.20;47.10
32614;DHT22;19031;51.400;6.770;2023-06-14T11:35:35;32.40;45.00
32614;DHT22;19031;51.400;6.770;2023-06-14T11:38:01;32.30;47.50
32614;DHT22;19031;51.400;6.770;2023-06-14T11:40:27;32.20;43.90
32614;DHT22;19031;51.400;6.770;2023-06-14T11:42:59;31.90;46.20
32614;DHT22;19031;51.400;6.770;2023-06-14T11:45:26;32.10;44.30
32614;DHT22;19031;51.400;6.770;2023-06-14T11:47:55;32.00;45.10
32614;DHT22;19031;51.400;6.770;2023-06-14T11:50:22;32.00;44.20
32614;DHT22;19031;51.400;6.770;2023-06-14T11:52:53;31.90;45.20
32614;DHT22;19031;51.400;6.770;2023-06-14T11:55:19;32.00;45.60
32614;DHT22;19031;51.400;6.770;2023-06-14T11:57:46;31.70;45.30
32614;DHT22;19031;51.400;6.770;2023-06-14T12:00:12;31.80;45.80
32614;DHT22;19031;51.400;6.770;2023-06-14T12:02:40;31.80;45.60
32614;DHT22;19031;51.400;6.770;2023-06-14T12:05:06;31.60;44.80
32614;DHT22;19031;51.400;6.770;2023-06-14T12:07:38;31.10;45.80
32614;DHT22;19031;51.400;6.770;2023-06-14T12:10:07;31.40;47.50
32614;DHT22;19031;51.400;6.770;2023-06-14T12:12:38;31.60;48.50
32614;DHT22;19031;51.400;6.770;2023-06-14T12:15:08;32.00;47.30
32614;DHT22;19031;51.400;6.770;2023-06-14T12:17:35;32.00;44.50
32614;DHT22;19031;51.400;6.770;2023-06-14T12:20:12;31.80;46.30
32614;DHT22;19031;51.400;6.770;2023-06-14T12:22:54;31.80;45.30
32614;DHT22;19031;51.400;6.770;2023-06-14T12:25:34;31.90;45.70
32614;DHT22;19031;51.400;6.770;2023-06-14T12:28:07;31.50;46.50
32614;DHT22;19031;51.400;6.770;2023-06-14T12:30:35;31.20;47.20
32614;DHT22;19031;51.400;6.770;2023-06-14T12:33:02;31.40;46.30
32614;DHT22;19031;51.400;6.770;2023-06-14T12:35:28;31.70;46.80
32614;DHT22;19031;51.400;6.770;2023-06-14T12:37:53;32.00;47.00
32614;DHT22;19031;51.400;6.770;2023-06-14T12:40:19;32.10;45.80
32614;DHT22;19031;51.400;6.770;2023-06-14T12:42:45;32.50;45.60
32614;DHT22;19031;51.400;6.770;2023-06-14T12:45:14;32.40;45.20
32614;DHT22;19031;51.400;6.770;2023-06-14T12:47:39;32.00;45.80
32614;DHT22;19031;51.400;6.770;2023-06-14T12:50:06;31.90;45.50
32614;DHT22;19031;51.400;6.770;2023-06-14T12:52:32;32.10;45.90
32614;DHT22;19031;51.400;6.770;2023-06-14T12:55:02;32.20;46.80
32614;DHT22;19031;51.400;6.770;2023-06-14T12:57:28;32.00;45.30
32614;DHT22;19031;51.400;6.770;2023-06-14T12:59:53;32.50;48.10
32614;DHT22;19031;51.400;6.770;2023-06-14T13:02:20;32.70;46.30
32614;DHT22;19031;51.400;6.770;2023-06-14T13:04:50;32.10;45.30
32614;DHT22;19031;51.400;6.770;2023-06-14T13:07:16;31.80;44.90
32614;DHT22;19031;51.400;6.770;2023-06-14T13:09:42;31.70;47.20
32614;DHT22;19031;51.400;6.770;2023-06-14T13:12:12;32.20;45.30
32614;DHT22;19031;51.400;6.770;2023-06-14T13:14:38;32.60;45.50
32614;DHT22;19031;51.400;6.770;2023-06-14T13:17:04;32.20;45.20
32614;DHT22;19031;51.400;6.770;2023-06-14T13:19:31;32.00;46.40
32614;DHT22;19031;51.400;6.770;2023-06-14T13:21:56;32.00;44.60
32614;DHT22;19031;51.400;6.770;2023-06-14T13:24:22;32.10;44.90
32614;DHT22;19031;51.400;6.770;2023-06-14T13:26:47;32.40;44.30
32614;DHT22;19031;51.400;6.770;2023-06-14T13:29:13;32.50;45.50
32614;DHT22;19031;51.400;6.770;2023-06-14T13:31:38;32.40;44.10
32614;DHT22;19031;51.400;6.770;2023-06-14T13:34:04;32.50;45.30
32614;DHT22;19031;51.400;6.770;2023-06-14T13:36:31;32.60;45.50
32614;DHT22;19031;51.400;6.770;2023-06-14T13:38:56;32.60;44.70
32614;DHT22;19031;51.400;6.770;2023-06-14T13:41:25;32.70;42.80
32614;DHT22;19031;51.400;6.770;2023-06-14T13:43:57;32.70;44.10
32614;DHT22;19031;51.400;6.770;2023-06-14T13:46:22;32.90;44.80
32614;DHT22;19031;51.400;6.770;2023-06-14T13:48:48;32.90;43.50
32614;DHT22;19031;51.400;6.770;2023-06-14T13:51:13;32.90;44.00
32614;DHT22;19031;51.400;6.770;2023-06-14T13:53:39;33.30;45.50
32614;DHT22;19031;51.400;6.770;2023-06-14T13:56:04;33.40;43.30
32614;DHT22;19031;51.400;6.770;2023-06-14T13:58:30;33.10;42.70
32614;DHT22;19031;51.400;6.770;2023-06-14T14:00:56;32.80;43.30
32614;DHT22;19031;51.400;6.770;2023-06-14T14:03:22;32.70;43.60
32614;DHT22;19031;51.400;6.770;2023-06-14T14:05:47;32.40;44.90
32614;DHT22;19031;51.400;6.770;2023-06-14T14:08:13;32.40;43.70
32614;DHT22;19031;51.400;6.770;2023-06-14T14:10:38;32.50;44.70
32614;DHT22;19031;51.400;6.770;2023-06-14T14:13:04;32.70;46.00
32614;DHT22;19031;51.400;6.770;2023-06-14T14:15:29;33.00;44.10
32614;DHT22;19031;51.400;6.770;2023-06-14T14:17:55;33.00;43.90
32614;DHT22;19031;51.400;6.770;2023-06-14T14:20:23;33.00;43.70
32614;DHT22;19031;51.400;6.770;2023-06-14T14:22:48;33.00;45.20
32614;DHT22;19031;51.400;6.770;2023-06-14T14:25:14;32.90;44.80
32614;DHT22;19031;51.400;6.770;2023-06-14T14:27:39;32.70;42.90
32614;DHT22;19031;51.400;6.770;2023-06-14T14:30:06;32.20;43.20
32614;DHT22;19031;51.400;6.770;2023-06-14T14:32:31;33.00;43.80
32614;DHT22;19031;51.400;6.770;2023-06-14T14:34:57;33.00;43.00
32614;DHT22;19031;51.400;6.770;2023-06-14T14:37:23;32.50;43.60
32614;DHT22;19031;51.400;6.770;2023-06-14T14:39:49;31.90;43.90
32614;DHT22;19031;51.400;6.770;2023-06-14T14:42:14;31.70;44.30
32614;DHT22;19031;51.400;6.770;2023-06-14T14:44:40;31.90;45.00
32614;DHT22;19031;51.400;6.770;2023-06-14T14:47:06;32.20;44.40
32614;DHT22;19031;51.400;6.770;2023-06-14T14:49:32;31.80;44.20
32614;DHT22;19031;51.400;6.770;2023-06-14T14:51:57;32.20;43.60
32614;DHT22;19031;51.400;6.770;2023-06-14T14:54:23;31.80;43.60
32614;DHT22;19031;51.400;6.770;2023-06-14T14:56:50;31.70;46.20
32614;DHT22;19031;51.400;6.770;2023-06-14T14:59:16;32.50;45.50
32614;DHT22;19031;51.400;6.770;2023-06-14T15:01:42;32.40;44.20
32614;DHT22;19031;51.400;6.770;2023-06-14T15:04:08;32.00;45.80
32614;DHT22;19031;51.400;6.770;2023-06-14T15:06:33;31.90;44.80
32614;DHT22;19031;51.400;6.770;2023-06-14T15:09:01;31.50;44.20
32614;DHT22;19031;51.400;6.770;2023-06-14T15:11:26;31.70;46.80
32614;DHT22;19031;51.400;6.770;2023-06-14T15:13:52;31.90;44.60
32614;DHT22;19031;51.400;6.770;2023-06-14T15:16:18;32.10;44.60
32614;DHT22;19031;51.400;6.770;2023-06-14T15:18:43;31.70;45.80
32614;DHT22;19031;51.400;6.770;2023-06-14T15:21:09;31.70;44.30
32614;DHT22;19031;51.400;6.770;2023-06-14T15:23:34;31.90;45.30
32614;DHT22;19031;51.400;6.770;2023-06-14T15:26:00;32.30;45.30
32614;DHT22;19031;51.400;6.770;2023-06-14T15:28:26;32.40;44.50
32614;DHT22;19031;51.400;6.770;2023-06-14T15:30:55;32.30;44.50
32614;DHT22;19031;51.400;6.770;2023-06-14T15:33:21;32.50;44.40
32614;DHT22;19031;51.400;6.770;2023-06-14T15:35:46;32.20;44.40
32614;DHT22;19031;51.400;6.770;2023-06-14T15:38:12;32.00;44.00
32614;DHT22;19031;51.400;6.770;2023-06-14T15:40:38;32.20;43.80
32614;DHT22;19031;51.400;6.770;2023-06-14T15:43:03;32.00;45.00